createdAt,value
2022-09-26T00:01:07.853Z,96802.16
2022-09-26T00:03:37.959Z,96796.47
2022-09-26T00:06:07.353Z,96802.75
2022-09-26T00:08:36.651Z,96799.44
2022-09-26T00:11:10.384Z,96792.03
2022-09-26T00:13:39.958Z,96799.22
2022-09-26T00:16:09.061Z,96794.41
2022-09-26T00:18:38.794Z,96785.94
2022-09-26T00:21:08.492Z,96790.78
2022-09-26T00:23:36.747Z,96791.69
2022-09-26T00:26:05.444Z,96783.34
2022-09-26T00:28:34.298Z,96781.53
2022-09-26T00:31:05.144Z,96784.34
2022-09-26T00:33:33.401Z,96788.97
2022-09-26T00:36:03.222Z,96791.28
2022-09-26T00:38:31.278Z,96786.28
2022-09-26T00:40:59.550Z,96784.25
2022-09-26T00:43:30.817Z,96783.56
2022-09-26T00:46:03.727Z,96786.97
2022-09-26T00:48:33.149Z,96791.38
2022-09-26T00:51:02.592Z,96787.97
2022-09-26T00:53:37.443Z,96784.34
2022-09-26T00:56:10.835Z,96780.25
2022-09-26T00:58:42.941Z,96783.97
2022-09-26T01:01:10.967Z,96783.78
2022-09-26T01:03:41.016Z,96773.22
2022-09-26T01:06:10.242Z,96773.22
2022-09-26T01:08:41.900Z,96780.81
2022-09-26T01:11:13.595Z,96775.38
2022-09-26T01:13:45.495Z,96772.00
2022-09-26T01:16:13.497Z,96773.22
2022-09-26T01:18:42.141Z,96774.59
2022-09-26T01:21:44.016Z,96779.00
2022-09-26T01:24:45.358Z,96774.94
2022-09-26T01:27:46.441Z,96773.47
2022-09-26T01:30:18.185Z,96766.44
2022-09-26T01:33:12.904Z,96768.03
2022-09-26T01:36:09.720Z,96778.19
2022-09-26T01:38:48.776Z,96766.97
2022-09-26T01:41:36.152Z,96770.94
2022-09-26T01:44:16.402Z,96769.94
2022-09-26T01:46:51.977Z,96779.59
2022-09-26T01:49:26.100Z,96781.16
2022-09-26T01:52:00.912Z,96778.00
2022-09-26T01:54:36.561Z,96776.28
2022-09-26T01:57:07.571Z,96780.00
2022-09-26T01:59:42.090Z,96780.56
2022-09-26T02:02:19.143Z,96787.16
2022-09-26T02:04:51.468Z,96777.44
2022-09-26T02:07:22.654Z,96772.44
2022-09-26T02:09:59.506Z,96762.25
2022-09-26T02:12:33.142Z,96765.28
2022-09-26T02:15:04.233Z,96773.00
2022-09-26T02:17:36.051Z,96763.38
2022-09-26T02:20:10.849Z,96753.56
2022-09-26T02:22:39.964Z,96752.09
2022-09-26T02:25:09.305Z,96758.13
2022-09-26T02:27:37.058Z,96761.75
2022-09-26T02:30:05.546Z,96765.50
2022-09-26T02:32:35.550Z,96752.03
2022-09-26T02:35:34.043Z,96762.78
2022-09-26T02:38:02.354Z,96756.66
2022-09-26T02:40:40.453Z,96746.69
2022-09-26T02:43:39.261Z,96745.69
2022-09-26T02:46:26.138Z,96745.13
2022-09-26T02:49:10.578Z,96742.16
2022-09-26T02:52:02.208Z,96741.47
2022-09-26T02:54:40.404Z,96734.88
2022-09-26T02:57:22.864Z,96738.19
2022-09-26T03:00:00.029Z,96733.44
2022-09-26T03:02:35.104Z,96732.88
2022-09-26T03:05:10.389Z,96736.28
2022-09-26T03:07:45.533Z,96727.88
2022-09-26T03:10:15.258Z,96733.91
2022-09-26T03:12:45.398Z,96729.81
2022-09-26T03:15:15.482Z,96728.44
2022-09-26T03:17:48.396Z,96736.50
2022-09-26T03:20:21.776Z,96733.44
2022-09-26T03:22:50.604Z,96736.16
2022-09-26T03:25:22.668Z,96732.75
2022-09-26T03:27:51.192Z,96734.47
2022-09-26T03:30:20.311Z,96730.13
2022-09-26T03:32:49.121Z,96726.31
2022-09-26T03:35:18.628Z,96729.47
2022-09-26T03:37:46.303Z,96734.22
2022-09-26T03:40:14.694Z,96733.09
2022-09-26T03:42:42.655Z,96728.31
2022-09-26T03:45:12.357Z,96720.38
2022-09-26T03:47:40.786Z,96717.88
2022-09-26T03:50:09.903Z,96711.56
2022-09-26T03:52:39.209Z,96706.78
2022-09-26T03:55:07.897Z,96708.59
2022-09-26T03:57:36.085Z,96711.31
2022-09-26T04:00:08.009Z,96701.44
2022-09-26T04:02:36.050Z,96697.88
2022-09-26T04:05:04.450Z,96696.91
2022-09-26T04:07:32.349Z,96694.66
2022-09-26T04:10:01.693Z,96698.72
2022-09-26T04:12:29.701Z,96693.63
2022-09-26T04:14:58.064Z,96690.13
2022-09-26T04:17:26.008Z,96679.47
2022-09-26T04:19:54.353Z,96683.78
2022-09-26T04:22:22.287Z,96691.25
2022-09-26T04:24:51.690Z,96694.44
2022-09-26T04:27:21.045Z,96692.97
2022-09-26T04:29:49.048Z,96700.09
2022-09-26T04:32:17.077Z,96702.25
2022-09-26T04:34:45.406Z,96698.38
2022-09-26T04:37:13.379Z,96700.41
2022-09-26T04:39:42.474Z,96692.03
2022-09-26T04:42:10.615Z,96694.97
2022-09-26T04:44:40.319Z,96689.78
2022-09-26T04:47:08.390Z,96696.72
2022-09-26T04:49:36.938Z,96687.72
2022-09-26T04:52:04.913Z,96688.66
2022-09-26T04:54:33.396Z,96689.78
2022-09-26T04:57:01.626Z,96692.75
2022-09-26T04:59:29.951Z,96690.38
2022-09-26T05:01:59.286Z,96693.81
2022-09-26T05:04:28.000Z,96695.59
2022-09-26T05:06:59.229Z,96693.34
2022-09-26T05:09:27.357Z,96689.16
2022-09-26T05:11:55.277Z,96689.63
2022-09-26T05:14:23.549Z,96694.06
2022-09-26T05:16:51.968Z,96689.53
2022-09-26T05:19:21.340Z,96687.94
2022-09-26T05:21:49.670Z,96688.38
2022-09-26T05:24:34.945Z,96681.56
2022-09-26T05:27:07.233Z,96693.69
2022-09-26T05:29:36.024Z,96686.91
2022-09-26T05:32:04.224Z,96685.78
2022-09-26T05:34:34.207Z,96687.91
2022-09-26T05:37:02.238Z,96701.38
2022-09-26T05:39:48.266Z,96694.94
2022-09-26T05:42:16.582Z,96694.31
2022-09-26T05:44:45.016Z,96683.72
2022-09-26T05:47:13.305Z,96680.66
2022-09-26T05:49:43.172Z,96688.75
2022-09-26T05:52:11.196Z,96683.97
2022-09-26T05:54:39.627Z,96678.69
2022-09-26T05:57:07.978Z,96680.63
2022-09-26T05:59:36.338Z,96680.91
2022-09-26T06:02:06.385Z,96687.16
2022-09-26T06:04:34.776Z,96688.78
2022-09-26T06:07:04.681Z,96683.88
2022-09-26T06:09:32.697Z,96685.94
2022-09-26T06:12:00.667Z,96681.72
2022-09-26T06:14:29.682Z,96685.84
2022-09-26T06:16:57.599Z,96685.13
2022-09-26T06:19:25.954Z,96690.63
2022-09-26T06:21:54.158Z,96689.53
2022-09-26T06:24:24.048Z,96686.50
2022-09-26T06:26:52.022Z,96684.78
2022-09-26T06:29:20.087Z,96660.06
2022-09-26T06:31:48.227Z,96681.72
2022-09-26T06:34:16.345Z,96672.47
2022-09-26T06:36:45.337Z,96671.31
2022-09-26T06:39:13.592Z,96669.03
2022-09-26T06:41:43.580Z,96668.28
2022-09-26T06:44:11.747Z,96661.28
2022-09-26T06:46:40.153Z,96656.22
2022-09-26T06:49:08.157Z,96648.38
2022-09-26T06:51:38.724Z,96645.53
2022-09-26T06:54:06.860Z,96643.53
2022-09-26T06:56:35.190Z,96639.22
2022-09-26T06:59:04.538Z,96635.72
2022-09-26T07:01:33.097Z,96641.06
2022-09-26T07:04:01.493Z,96627.84
2022-09-26T07:06:29.881Z,96626.00
2022-09-26T07:09:03.024Z,96628.56
2022-09-26T07:11:50.383Z,96629.88
2022-09-26T07:14:22.830Z,96639.28
2022-09-26T07:16:51.590Z,96638.28
2022-09-26T07:19:19.565Z,96630.13
2022-09-26T07:21:49.210Z,96636.44
2022-09-26T07:24:17.184Z,96634.81
2022-09-26T07:26:45.548Z,96637.66
2022-09-26T07:29:13.709Z,96645.88
2022-09-26T07:31:43.671Z,96650.09
2022-09-26T07:34:15.863Z,96643.88
2022-09-26T07:36:47.825Z,96645.53
2022-09-26T07:39:16.194Z,96644.88
2022-09-26T07:41:46.181Z,96643.56
2022-09-26T07:45:17.068Z,96620.97
2022-09-26T07:47:22.793Z,96646.50
2022-09-26T07:50:08.448Z,96645.19
2022-09-26T07:52:36.397Z,96639.63
2022-09-26T07:55:05.216Z,96643.81
2022-09-26T07:57:34.275Z,96643.22
2022-09-26T08:00:02.805Z,96642.13
2022-09-26T08:02:32.969Z,96647.50
2022-09-26T08:05:03.455Z,96642.47
2022-09-26T08:07:32.497Z,96642.97
2022-09-26T08:10:01.886Z,96639.34
2022-09-26T08:12:35.369Z,96631.97
2022-09-26T08:15:06.171Z,96645.25
2022-09-26T08:17:36.574Z,96641.97
2022-09-26T08:20:05.558Z,96646.19
2022-09-26T08:22:33.646Z,96632.91
2022-09-26T08:25:01.600Z,96639.66
2022-09-26T08:27:33.662Z,96650.75
2022-09-26T08:30:04.308Z,96639.53
2022-09-26T08:32:33.909Z,96629.25
2022-09-26T08:35:03.426Z,96629.25
2022-09-26T08:37:31.961Z,96632.13
2022-09-26T08:40:00.872Z,96631.31
2022-09-26T08:42:46.556Z,96637.28
2022-09-26T08:45:55.213Z,96642.38
2022-09-26T08:48:40.151Z,96633.09
2022-09-26T08:51:23.312Z,96638.97
2022-09-26T08:53:58.254Z,96628.25
2022-09-26T08:56:32.082Z,96630.63
2022-09-26T08:59:03.366Z,96632.38
2022-09-26T09:01:35.610Z,96630.22
2022-09-26T09:04:08.775Z,96639.84
2022-09-26T09:06:39.738Z,96623.66
2022-09-26T09:09:08.086Z,96635.56
2022-09-26T09:11:58.431Z,96628.09
2022-09-26T09:14:42.488Z,96634.88
2022-09-26T09:17:23.560Z,96632.44
2022-09-26T09:20:00.552Z,96621.38
2022-09-26T09:22:49.567Z,96625.22
2022-09-26T09:25:22.706Z,96622.22
2022-09-26T09:28:20.397Z,96618.66
2022-09-26T09:30:51.515Z,96612.47
2022-09-26T09:33:23.602Z,96607.38
2022-09-26T09:35:56.578Z,96606.88
2022-09-26T09:38:31.436Z,96604.34
2022-09-26T09:41:03.991Z,96612.06
2022-09-26T09:43:37.903Z,96601.06
2022-09-26T09:46:12.440Z,96599.97
2022-09-26T09:48:40.613Z,96605.25
2022-09-26T09:51:24.172Z,96599.19
2022-09-26T09:54:17.726Z,96596.78
2022-09-26T09:56:59.373Z,96592.34
2022-09-26T09:59:48.392Z,96583.78
2022-09-26T10:02:25.731Z,96585.03
2022-09-26T10:05:02.019Z,96572.69
2022-09-26T10:07:30.388Z,96569.44
2022-09-26T10:09:59.725Z,96573.59
2022-09-26T10:12:30.751Z,96559.72
2022-09-26T10:15:05.255Z,96554.75
2022-09-26T10:17:33.683Z,96549.34
2022-09-26T10:20:01.804Z,96555.66
2022-09-26T10:22:35.615Z,96553.50
2022-09-26T10:25:09.564Z,96555.59
2022-09-26T10:27:40.260Z,96554.16
2022-09-26T10:30:25.959Z,96555.28
2022-09-26T10:32:57.414Z,96556.69
2022-09-26T10:35:29.684Z,96554.59
2022-09-26T10:38:03.977Z,96550.44
2022-09-26T10:40:47.841Z,96541.00
2022-09-26T10:43:29.103Z,96539.44
2022-09-26T10:46:03.578Z,96548.38
2022-09-26T10:48:48.468Z,96542.38
2022-09-26T10:51:26.914Z,96539.25
2022-09-26T10:54:04.500Z,96535.28
2022-09-26T10:56:39.944Z,96537.69
2022-09-26T10:59:11.938Z,96540.31
2022-09-26T11:01:44.127Z,96534.31
2022-09-26T11:04:36.607Z,96525.88
2022-09-26T11:07:06.376Z,96519.66
2022-09-26T11:09:34.766Z,96520.19
2022-09-26T11:12:23.935Z,96518.97
2022-09-26T11:14:56.960Z,96503.13
2022-09-26T11:17:43.809Z,96498.19
2022-09-26T11:20:19.063Z,96506.06
2022-09-26T11:22:54.793Z,96500.59
2022-09-26T11:25:28.940Z,96499.81
2022-09-26T11:28:06.514Z,96499.09
2022-09-26T11:30:40.908Z,96505.78
2022-09-26T11:33:14.998Z,96498.28
2022-09-26T11:35:53.261Z,96481.28
2022-09-26T11:38:39.259Z,96489.63
2022-09-26T11:41:36.403Z,96475.47
2022-09-26T11:44:26.161Z,96479.72
2022-09-26T11:47:11.679Z,96471.72
2022-09-26T11:49:51.718Z,96460.03
2022-09-26T11:52:34.679Z,96448.63
2022-09-26T11:55:17.163Z,96458.44
2022-09-26T11:57:55.388Z,96454.97
2022-09-26T12:00:27.471Z,96454.91
2022-09-26T12:03:32.987Z,96452.41
2022-09-26T12:06:08.905Z,96449.13
2022-09-26T12:08:50.355Z,96450.78
2022-09-26T12:11:27.620Z,96446.84
2022-09-26T12:14:01.791Z,96440.63
2022-09-26T12:16:41.583Z,96442.69
2022-09-26T12:19:19.928Z,96437.56
2022-09-26T12:22:13.657Z,96436.06
2022-09-26T12:24:51.659Z,96427.88
2022-09-26T12:27:27.033Z,96419.59
2022-09-26T12:30:05.194Z,96413.66
2022-09-26T12:32:57.113Z,96419.22
2022-09-26T12:35:37.968Z,96407.78
2022-09-26T12:38:35.352Z,96405.38
2022-09-26T12:41:20.049Z,96396.38
2022-09-26T12:44:03.803Z,96395.13
2022-09-26T12:46:47.969Z,96389.31
2022-09-26T12:49:37.424Z,96384.84
2022-09-26T12:52:14.267Z,96388.00
2022-09-26T12:55:00.602Z,96378.09
2022-09-26T12:57:39.647Z,96388.84
2022-09-26T13:00:20.797Z,96383.81
2022-09-26T13:03:14.208Z,96380.66
2022-09-26T13:06:16.961Z,96380.69
2022-09-26T13:08:57.702Z,96375.91
2022-09-26T13:11:36.163Z,96375.06
2022-09-26T13:14:27.965Z,96364.94
2022-09-26T13:17:09.877Z,96364.94
2022-09-26T13:19:43.903Z,96354.28
2022-09-26T13:22:26.473Z,96350.28
2022-09-26T13:25:00.422Z,96342.44
2022-09-26T13:27:36.564Z,96342.84
2022-09-26T13:30:08.226Z,96348.03
2022-09-26T13:32:49.539Z,96346.06
2022-09-26T13:35:21.929Z,96342.16
2022-09-26T13:38:14.739Z,96336.25
2022-09-26T13:40:51.667Z,96328.00
2022-09-26T13:43:36.521Z,96325.63
2022-09-26T13:46:16.284Z,96321.28
2022-09-26T13:48:52.313Z,96322.84
2022-09-26T13:51:25.696Z,96324.44
2022-09-26T13:54:10.953Z,96322.88
2022-09-26T13:56:46.988Z,96316.97
2022-09-26T13:59:34.967Z,96311.47
2022-09-26T14:02:23.402Z,96316.19
2022-09-26T14:04:53.793Z,96312.19
2022-09-26T14:07:45.680Z,96312.06
2022-09-26T14:10:36.448Z,96301.69
2022-09-26T14:13:20.149Z,96303.44
2022-09-26T14:16:02.739Z,96300.84
2022-09-26T14:18:57.650Z,96301.66
2022-09-26T14:21:46.448Z,96296.09
2022-09-26T14:24:39.338Z,96294.56
2022-09-26T14:27:42.809Z,96290.69
2022-09-26T14:30:28.247Z,96279.63
2022-09-26T14:33:02.290Z,96278.88
2022-09-26T14:35:33.056Z,96272.31
2022-09-26T14:38:03.632Z,96266.66
2022-09-26T14:40:34.659Z,96260.00
2022-09-26T14:43:15.705Z,96262.31
2022-09-26T14:45:49.041Z,96260.34
2022-09-26T14:48:30.661Z,96264.59
2022-09-26T14:51:03.506Z,96261.28
2022-09-26T14:53:38.704Z,96250.78
2022-09-26T14:56:11.003Z,96249.50
2022-09-26T14:58:52.013Z,96244.41
2022-09-26T15:01:26.699Z,96244.22
2022-09-26T15:04:02.469Z,96246.84
2022-09-26T15:06:31.833Z,96239.31
2022-09-26T15:09:01.559Z,96246.25
2022-09-26T15:11:44.515Z,96236.25
2022-09-26T15:14:23.330Z,96234.69
2022-09-26T15:16:54.982Z,96227.66
2022-09-26T15:19:28.770Z,96224.53
2022-09-26T15:22:01.827Z,96223.25
2022-09-26T15:24:33.411Z,96231.94
2022-09-26T15:27:08.703Z,96218.88
2022-09-26T15:29:43.824Z,96215.31
2022-09-26T15:32:19.601Z,96217.56
2022-09-26T15:34:49.182Z,96225.28
2022-09-26T15:37:21.279Z,96236.63
2022-09-26T15:39:49.886Z,96271.00
2022-09-26T15:42:41.510Z,96273.13
2022-09-26T15:45:30.262Z,96277.06
2022-09-26T15:48:06.149Z,96278.28
2022-09-26T15:50:41.512Z,96270.53
2022-09-26T15:53:20.768Z,96272.47
2022-09-26T15:55:54.281Z,96267.09
2022-09-26T15:58:29.357Z,96261.34
2022-09-26T16:00:59.738Z,96261.41
2022-09-26T16:03:48.341Z,96252.34
2022-09-26T16:06:24.824Z,96253.88
2022-09-26T16:08:56.895Z,96251.19
2022-09-26T16:11:26.120Z,96249.09
2022-09-26T16:13:56.556Z,96244.94
2022-09-26T16:16:32.039Z,96234.38
2022-09-26T16:19:03.319Z,96237.63
2022-09-26T16:21:34.181Z,96241.66
2022-09-26T16:24:22.715Z,96241.56
2022-09-26T16:26:53.489Z,96228.91
2022-09-26T16:29:31.429Z,96232.78
2022-09-26T16:32:01.259Z,96230.16
2022-09-26T16:34:30.405Z,96226.13
2022-09-26T16:36:59.044Z,96225.06
2022-09-26T16:39:29.446Z,96219.00
2022-09-26T16:42:02.749Z,96214.13
2022-09-26T16:44:35.905Z,96213.53
2022-09-26T16:47:09.145Z,96215.16
2022-09-26T16:49:49.767Z,96211.72
2022-09-26T16:52:26.908Z,96211.72
2022-09-26T16:54:56.204Z,96206.47
2022-09-26T16:57:26.799Z,96201.72
2022-09-26T17:00:16.110Z,96195.88
2022-09-26T17:02:45.805Z,96197.63
2022-09-26T17:05:19.673Z,96197.84
2022-09-26T17:07:50.043Z,96196.28
2022-09-26T17:10:19.769Z,96192.97
2022-09-26T17:12:50.881Z,96188.75
2022-09-26T17:15:23.354Z,96198.41
2022-09-26T17:17:54.098Z,96195.44
2022-09-26T17:20:23.658Z,96198.19
2022-09-26T17:22:52.485Z,96196.19
2022-09-26T17:25:20.612Z,96194.88
2022-09-26T17:27:53.264Z,96192.81
2022-09-26T17:30:21.465Z,96193.56
2022-09-26T17:32:54.792Z,96191.41
2022-09-26T17:35:27.807Z,96185.47
2022-09-26T17:37:56.469Z,96179.91
2022-09-26T17:40:27.693Z,96186.97
2022-09-26T17:42:58.023Z,96185.47
2022-09-26T17:45:30.617Z,96184.06
2022-09-26T17:48:04.113Z,96181.63
2022-09-26T17:50:35.381Z,96182.50
2022-09-26T17:53:04.502Z,96175.91
2022-09-26T17:55:33.559Z,96177.81
2022-09-26T17:58:02.496Z,96168.38
2022-09-26T18:00:37.402Z,96175.50
2022-09-26T18:03:09.077Z,96162.06
2022-09-26T18:05:39.699Z,96176.31
2022-09-26T18:08:17.683Z,96162.50
2022-09-26T18:10:50.553Z,96171.28
2022-09-26T18:13:26.543Z,96168.81
2022-09-26T18:15:55.448Z,96169.00
2022-09-26T18:18:28.218Z,96167.56
2022-09-26T18:21:02.948Z,96172.94
2022-09-26T18:23:42.821Z,96157.41
2022-09-26T18:26:18.910Z,96158.25
2022-09-26T18:28:47.369Z,96159.84
2022-09-26T18:31:15.548Z,96153.25
2022-09-26T18:33:45.433Z,96148.19
2022-09-26T18:36:13.457Z,96130.16
2022-09-26T18:38:41.863Z,96146.94
2022-09-26T18:41:11.581Z,96137.88
2022-09-26T18:43:42.790Z,96140.00
2022-09-26T18:46:13.874Z,96141.94
2022-09-26T18:48:42.391Z,96144.66
2022-09-26T18:51:12.859Z,96134.66
2022-09-26T18:53:42.330Z,96132.09
2022-09-26T18:56:29.005Z,96130.53
2022-09-26T18:58:58.254Z,96126.69
2022-09-26T19:01:33.089Z,96124.69
2022-09-26T19:04:04.090Z,96134.03
2022-09-26T19:06:36.888Z,96127.03
2022-09-26T19:09:07.208Z,96124.50
2022-09-26T19:11:36.288Z,96128.03
2022-09-26T19:14:15.101Z,96118.44
2022-09-26T19:16:43.546Z,96122.31
2022-09-26T19:19:12.195Z,96125.47
2022-09-26T19:21:44.513Z,96121.16
2022-09-26T19:24:20.918Z,96122.75
2022-09-26T19:26:51.158Z,96121.41
2022-09-26T19:29:27.102Z,96118.34
2022-09-26T19:31:55.256Z,96108.50
2022-09-26T19:34:24.872Z,96102.38
2022-09-26T19:36:55.990Z,96102.56
2022-09-26T19:39:24.526Z,96107.94
2022-09-26T19:41:52.725Z,96107.50
2022-09-26T19:44:20.777Z,96097.94
2022-09-26T19:46:48.830Z,96089.25
2022-09-26T19:49:20.279Z,96080.88
2022-09-26T19:51:49.573Z,96067.19
2022-09-26T19:54:20.441Z,96059.91
2022-09-26T19:56:48.516Z,96055.34
2022-09-26T19:59:17.722Z,96054.38
2022-09-26T20:01:47.961Z,96050.22
2022-09-26T20:04:19.749Z,96041.41
2022-09-26T20:06:48.369Z,96038.03
2022-09-26T20:09:20.847Z,96037.38
2022-09-26T20:11:48.909Z,96034.78
2022-09-26T20:14:26.658Z,96037.44
2022-09-26T20:16:58.868Z,96035.88
2022-09-26T20:19:37.070Z,96034.84
2022-09-26T20:22:07.522Z,96031.00
2022-09-26T20:24:40.240Z,96029.41
2022-09-26T20:27:09.643Z,96018.81
2022-09-26T20:29:52.010Z,96021.78
2022-09-26T20:32:20.287Z,96011.78
2022-09-26T20:34:48.774Z,96009.00
2022-09-26T20:37:17.479Z,96010.03
2022-09-26T20:39:48.165Z,96010.50
2022-09-26T20:42:20.475Z,95999.19
2022-09-26T20:44:50.870Z,96004.53
2022-09-26T20:47:22.029Z,95992.16
2022-09-26T20:49:55.210Z,95980.75
2022-09-26T20:52:26.067Z,95983.72
2022-09-26T20:54:57.124Z,95979.72
2022-09-26T20:57:26.627Z,95977.44
2022-09-26T20:59:54.680Z,95976.75
2022-09-26T21:02:29.536Z,95966.06
2022-09-26T21:04:58.899Z,95961.00
2022-09-26T21:07:27.150Z,95958.00
2022-09-26T21:09:56.605Z,95954.69
2022-09-26T21:12:25.139Z,95950.56
2022-09-26T21:14:53.174Z,95945.81
2022-09-26T21:17:25.741Z,95944.72
2022-09-26T21:19:54.854Z,95941.53
2022-09-26T21:22:27.012Z,95943.66
2022-09-26T21:24:56.526Z,95930.06
2022-09-26T21:27:24.839Z,95916.50
2022-09-26T21:29:53.339Z,95922.75
2022-09-26T21:32:24.057Z,95905.97
2022-09-26T21:34:59.809Z,95911.16
2022-09-26T21:37:28.051Z,95889.66
2022-09-26T21:39:57.827Z,95896.25
2022-09-26T21:42:27.456Z,95905.16
2022-09-26T21:45:00.489Z,95899.91
2022-09-26T21:47:29.148Z,95903.00
2022-09-26T21:49:58.010Z,95895.03
2022-09-26T21:52:31.779Z,95885.00
2022-09-26T21:55:02.929Z,95880.38
2022-09-26T21:57:35.552Z,95888.56
2022-09-26T22:00:06.600Z,95878.25
2022-09-26T22:02:34.636Z,95873.16
2022-09-26T22:05:03.290Z,95870.84
2022-09-26T22:07:31.298Z,95861.56
2022-09-26T22:10:01.225Z,95860.16
2022-09-26T22:12:29.203Z,95857.59
2022-09-26T22:14:57.734Z,95849.56
2022-09-26T22:17:26.124Z,95841.41
2022-09-26T22:19:54.626Z,95838.19
2022-09-26T22:22:22.787Z,95838.56
2022-09-26T22:24:50.800Z,95837.75
2022-09-26T22:27:20.717Z,95829.91
2022-09-26T22:29:49.180Z,95824.91
2022-09-26T22:32:17.164Z,95818.28
2022-09-26T22:34:45.616Z,95816.28
2022-09-26T22:40:58.241Z,95805.00
2022-09-26T22:43:27.806Z,95813.09
2022-09-26T22:46:02.070Z,95802.03
2022-09-26T22:48:32.140Z,95805.44
2022-09-26T22:51:00.457Z,95798.78
2022-09-26T22:53:28.796Z,95798.56
2022-09-26T22:55:58.057Z,95800.38
2022-09-26T22:58:27.723Z,95796.50
2022-09-26T23:00:55.747Z,95789.34
2022-09-26T23:03:24.242Z,95777.03
2022-09-26T23:05:52.284Z,95777.19
2022-09-26T23:08:20.624Z,95769.16
2022-09-26T23:10:52.607Z,95766.94
2022-09-26T23:13:21.280Z,95769.75
2022-09-26T23:15:50.639Z,95765.09
2022-09-26T23:18:19.034Z,95757.19
2022-09-26T23:20:47.278Z,95755.22
2022-09-26T23:23:16.378Z,95749.88
2022-09-26T23:25:49.375Z,95747.56
2022-09-26T23:28:18.852Z,95739.72
2022-09-26T23:30:46.957Z,95736.22
2022-09-26T23:33:16.794Z,95739.06
2022-09-26T23:35:44.748Z,95736.53
2022-09-26T23:38:12.725Z,95729.72
2022-09-26T23:40:41.576Z,95726.28
2022-09-26T23:43:10.181Z,95727.75
2022-09-26T23:45:38.604Z,95720.91
2022-09-26T23:48:06.609Z,95713.94
2022-09-26T23:50:36.417Z,95711.72
2022-09-26T23:53:06.623Z,95703.59
2022-09-26T23:55:35.418Z,95705.97
2022-09-26T23:58:03.618Z,95703.81
